Time;durP1;ratioP1;P1;durP2;ratioP2;P2;SDS_P1;SDS_P2;PMS_P1;PMS_P2;Temp;Humidity;BMP_temperature;BMP_pressure;BME280_temperature;BME280_humidity;BME280_pressure;Samples;Min_cycle;Max_cycle;Signal;HPM_P1;HPM_P2
2022/09/27 00:01:31;;;;;;;2.05;0.95;;;;;;;11.05;100.00;99508.53;5013644;28;20033;-76
2022/09/27 00:03:57;;;;;;;1.80;0.50;;;;;;;11.30;99.99;99507.47;5019140;28;20028;-76
2022/09/27 00:06:29;;;;;;;4.30;0.80;;;;;;;11.43;98.80;99514.13;5018016;28;20034;-76
2022/09/27 00:08:55;;;;;;;3.17;0.60;;;;;;;11.50;98.51;99522.44;5020700;28;20025;-76
2022/09/27 00:11:30;;;;;;;4.15;1.25;;;;;;;11.34;98.36;99519.41;5027141;28;20072;-75
2022/09/27 00:13:57;;;;;;;4.45;1.13;;;;;;;11.19;98.93;99528.00;5030219;28;20033;-75
2022/09/27 00:16:26;;;;;;;1.88;0.63;;;;;;;11.36;98.64;99525.41;5023884;28;20128;-76
2022/09/27 00:18:52;;;;;;;1.48;0.70;;;;;;;11.22;99.11;99517.97;5045475;28;20036;-76
2022/09/27 00:21:17;;;;;;;2.15;0.55;;;;;;;11.16;98.38;99523.19;5031083;28;20493;-75
2022/09/27 00:23:43;;;;;;;2.88;0.70;;;;;;;10.93;99.12;99534.22;5025393;28;20558;-75
2022/09/27 00:26:11;;;;;;;2.60;0.80;;;;;;;11.13;99.12;99526.84;5030462;28;20397;-76
2022/09/27 00:28:36;;;;;;;3.97;0.77;;;;;;;11.29;98.56;99525.50;5029675;28;20033;-76
2022/09/27 00:31:02;;;;;;;4.90;0.70;;;;;;;11.30;97.85;99524.25;5028263;28;20138;-76
2022/09/27 00:33:27;;;;;;;4.25;0.60;;;;;;;11.16;98.35;99525.22;5022152;28;20474;-76
2022/09/27 00:35:53;;;;;;;3.30;0.70;;;;;;;11.25;98.14;99519.91;5027511;28;20083;-76
2022/09/27 00:38:19;;;;;;;4.90;1.40;;;;;;;11.32;97.67;99533.88;5042842;28;20041;-76
2022/09/27 00:40:45;;;;;;;3.35;0.85;;;;;;;10.96;98.00;99533.38;5028141;28;20156;-75
2022/09/27 00:43:20;;;;;;;2.47;0.70;;;;;;;11.15;97.67;99535.63;5028640;28;20048;-75
2022/09/27 00:45:58;;;;;;;2.53;0.60;;;;;;;11.13;98.18;99531.63;5029815;28;20476;-75
2022/09/27 00:48:26;;;;;;;3.85;0.80;;;;;;;11.23;97.71;99535.56;5026559;28;20509;-75
2022/09/27 00:50:55;;;;;;;5.93;0.60;;;;;;;11.27;97.28;99536.31;5024946;28;20033;-75
2022/09/27 00:53:30;;;;;;;4.35;1.17;;;;;;;11.28;97.11;99532.28;5017304;28;20033;-76
2022/09/27 00:56:02;;;;;;;2.63;0.73;;;;;;;11.30;97.03;99535.47;5015197;28;20041;-75
2022/09/27 00:58:38;;;;;;;2.70;0.80;;;;;;;11.22;97.14;99539.56;5020007;28;20045;-75
2022/09/27 01:01:09;;;;;;;1.50;0.70;;;;;;;11.14;97.05;99538.84;5025886;28;20704;-76
2022/09/27 01:04:02;;;;;;;1.83;0.70;;;;;;;11.00;97.23;99534.16;5030252;28;20030;-76
2022/09/27 01:06:27;;;;;;;2.50;0.52;;;;;;;11.06;97.15;99532.50;5027162;28;20030;-75
2022/09/27 01:08:53;;;;;;;3.22;0.85;;;;;;;11.14;97.19;99541.63;5026611;28;20025;-75
2022/09/27 01:11:31;;;;;;;7.55;1.58;;;;;;;11.08;96.99;99543.28;5029374;28;20442;-75
2022/09/27 01:14:11;;;;;;;6.70;1.17;;;;;;;11.07;97.90;99545.31;5017208;28;20036;-75
2022/09/27 01:17:06;;;;;;;4.80;0.70;;;;;;;11.09;97.23;99548.50;5019891;28;20030;-76
2022/09/27 01:19:49;;;;;;;7.68;0.90;;;;;;;11.18;97.20;99551.59;5027133;28;20432;-76
2022/09/27 01:22:24;;;;;;;5.75;0.60;;;;;;;11.23;96.85;99550.34;5024689;28;20041;-75
2022/09/27 01:25:05;;;;;;;3.97;0.65;;;;;;;11.12;97.75;99555.25;5024638;28;20048;-75
2022/09/27 01:27:52;;;;;;;2.60;0.73;;;;;;;11.05;97.75;99549.72;5025864;28;20037;-75
2022/09/27 01:30:22;;;;;;;5.78;1.20;;;;;;;11.05;97.44;99552.53;5026593;28;20079;-75
2022/09/27 01:32:53;;;;;;;3.55;0.65;;;;;;;11.06;97.03;99549.31;5017377;28;20064;-75
2022/09/27 01:35:51;;;;;;;4.50;1.13;;;;;;;10.99;97.57;99549.38;5023373;28;20041;-75
2022/09/27 01:38:41;;;;;;;3.58;1.20;;;;;;;11.06;97.19;99554.13;5013625;28;20127;-75
2022/09/27 01:41:26;;;;;;;1.77;1.00;;;;;;;11.04;96.94;99556.53;5024912;28;20542;-75
2022/09/27 01:44:26;;;;;;;3.55;0.70;;;;;;;10.90;97.38;99560.22;5018893;28;20747;-75
2022/09/27 01:46:55;;;;;;;6.35;1.65;;;;;;;10.82;97.77;99547.53;5012662;28;20048;-76
2022/09/27 01:49:51;;;;;;;3.28;0.70;;;;;;;10.97;97.34;99546.97;5014375;28;20516;-75
2022/09/27 01:52:21;;;;;;;2.63;0.80;;;;;;;11.05;96.88;99546.94;5013813;28;20401;-75
2022/09/27 01:54:52;;;;;;;3.20;0.57;;;;;;;10.99;96.90;99550.16;5019270;28;20041;-75
2022/09/27 01:57:25;;;;;;;4.80;0.90;;;;;;;11.09;96.75;99548.50;5017688;28;20037;-75
2022/09/27 02:00:00;;;;;;;3.80;1.33;;;;;;;11.03;96.82;99550.13;5018782;28;20069;-75
2022/09/27 02:02:28;;;;;;;2.05;0.60;;;;;;;11.04;96.48;99545.31;5010796;28;20038;-75
2022/09/27 02:04:58;;;;;;;3.10;0.85;;;;;;;10.97;96.30;99540.59;5016932;28;20048;-75
2022/09/27 02:07:32;;;;;;;2.50;1.30;;;;;;;10.84;96.83;99533.91;5020018;28;20030;-75
2022/09/27 02:10:14;;;;;;;4.35;1.00;;;;;;;10.92;96.45;99532.63;5023720;28;20037;-75
2022/09/27 02:12:50;;;;;;;4.00;0.65;;;;;;;11.08;95.87;99538.47;5035412;28;20030;-75
2022/09/27 02:15:17;;;;;;;5.88;0.70;;;;;;;10.98;95.78;99536.56;5023315;28;20080;-75
2022/09/27 02:17:48;;;;;;;4.60;1.20;;;;;;;10.97;95.66;99540.59;5020754;28;20037;-74
2022/09/27 02:20:18;;;;;;;2.45;0.77;;;;;;;11.02;95.83;99533.75;5022979;28;20021;-75
2022/09/27 02:22:50;;;;;;;2.58;0.63;;;;;;;11.07;95.02;99542.50;5021652;28;20116;-75
2022/09/27 02:25:35;;;;;;;0.70;0.43;;;;;;;11.06;95.55;99531.72;5022663;28;20030;-75
2022/09/27 02:28:25;;;;;;;8.48;1.15;;;;;;;11.09;95.14;99534.50;5018897;28;20673;-75
2022/09/27 02:30:51;;;;;;;3.30;1.00;;;;;;;11.02;95.37;99533.75;5021870;28;20481;-75
2022/09/27 02:33:21;;;;;;;8.15;2.53;;;;;;;11.04;94.97;99532.13;5019954;28;20041;-75
2022/09/27 02:35:47;;;;;;;5.15;0.75;;;;;;;10.98;95.16;99536.56;5021398;28;20025;-76
2022/09/27 02:38:12;;;;;;;4.47;0.60;;;;;;;11.04;95.02;99539.72;5019131;28;20028;-74
2022/09/27 02:40:45;;;;;;;1.90;0.50;;;;;;;10.84;95.00;99539.50;5023142;28;20384;-75
2022/09/27 02:43:14;;;;;;;5.10;0.70;;;;;;;10.94;95.04;99536.63;5029008;28;20057;-75
2022/09/27 02:45:49;;;;;;;5.30;0.60;;;;;;;11.01;94.56;99535.75;5026493;28;20562;-75
2022/09/27 02:48:17;;;;;;;3.13;0.55;;;;;;;10.90;94.90;99532.25;5023869;28;21078;-75
2022/09/27 02:51:06;;;;;;;4.95;0.60;;;;;;;10.87;94.90;99530.28;5023259;28;20061;-75
2022/09/27 02:53:40;;;;;;;3.50;0.60;;;;;;;10.97;95.09;99521.00;5027209;28;20099;-75
2022/09/27 02:56:24;;;;;;;1.77;0.38;;;;;;;10.99;94.82;99524.97;5022203;28;20053;-75
2022/09/27 02:59:08;;;;;;;1.40;0.70;;;;;;;10.96;94.26;99522.19;5018549;28;20073;-75
2022/09/27 03:01:44;;;;;;;1.90;1.20;;;;;;;10.92;94.43;99527.03;5019162;28;20141;-75
2022/09/27 03:04:09;;;;;;;0.63;0.47;;;;;;;10.92;94.67;99522.25;5021465;28;20041;-74
2022/09/27 03:06:36;;;;;;;1.65;0.52;;;;;;;10.78;95.04;99522.34;5023109;28;20049;-74
2022/09/27 03:09:02;;;;;;;1.30;0.60;;;;;;;10.77;95.41;99515.16;5018983;28;20034;-75
2022/09/27 03:11:27;;;;;;;0.60;0.50;;;;;;;10.72;95.41;99519.19;5026709;28;20029;-75
2022/09/27 03:13:53;;;;;;;0.98;0.50;;;;;;;10.71;95.38;99517.63;5026012;28;20037;-75
2022/09/27 03:16:18;;;;;;;4.95;0.70;;;;;;;10.75;95.66;99523.97;5019787;28;20092;-75
2022/09/27 03:18:44;;;;;;;5.72;1.23;;;;;;;10.85;94.87;99521.50;5019931;28;20041;-75
2022/09/27 03:21:09;;;;;;;3.00;0.73;;;;;;;10.85;94.75;99521.50;5020737;28;20037;-75
2022/09/27 03:23:34;;;;;;;1.70;0.68;;;;;;;10.68;95.73;99514.84;5019679;28;20037;-75
2022/09/27 03:26:00;;;;;;;4.00;0.80;;;;;;;10.80;95.51;99516.34;5021102;28;20163;-75
2022/09/27 03:28:28;;;;;;;2.40;0.55;;;;;;;10.76;95.70;99525.56;5017732;28;20022;-75
2022/09/27 03:30:54;;;;;;;3.40;0.65;;;;;;;10.84;95.02;99519.91;5023822;28;20033;-75
2022/09/27 03:33:19;;;;;;;3.88;0.60;;;;;;;10.83;95.08;99523.91;5021110;28;20125;-75
2022/09/27 03:35:44;;;;;;;4.85;0.88;;;;;;;10.78;95.25;99523.16;5014996;28;20064;-75
2022/09/27 03:38:10;;;;;;;0.75;0.60;;;;;;;10.77;95.24;99524.38;5011934;28;20409;-74
2022/09/27 03:40:35;;;;;;;2.00;0.50;;;;;;;10.79;94.90;99526.72;5014153;28;20034;-75
2022/09/27 03:43:01;;;;;;;7.80;1.15;;;;;;;10.59;96.13;99532.09;5016221;28;20034;-75
2022/09/27 03:45:26;;;;;;;2.63;0.65;;;;;;;10.64;96.00;99534.44;5017864;28;20424;-75
2022/09/27 03:47:52;;;;;;;2.97;1.00;;;;;;;10.74;95.31;99530.78;5024310;28;20520;-75
2022/09/27 03:50:17;;;;;;;1.80;0.50;;;;;;;10.78;95.27;99534.34;5017120;28;20048;-75
2022/09/27 03:52:43;;;;;;;1.80;0.85;;;;;;;10.73;95.54;99540.38;5017304;28;20045;-76
2022/09/27 03:55:10;;;;;;;3.72;0.80;;;;;;;10.80;95.11;99535.94;5018544;28;20030;-75
2022/09/27 03:57:35;;;;;;;2.03;0.60;;;;;;;10.73;95.51;99533.97;5018263;28;20592;-75
2022/09/27 04:00:01;;;;;;;1.90;0.40;;;;;;;10.78;94.42;99548.34;5017643;28;20029;-75
2022/09/27 04:02:26;;;;;;;2.85;0.63;;;;;;;10.67;94.89;99544.84;5020071;28;20037;-75
2022/09/27 04:04:52;;;;;;;4.72;0.60;;;;;;;10.70;95.48;99548.81;5020691;28;20397;-75
2022/09/27 04:07:17;;;;;;;3.70;0.57;;;;;;;10.71;95.23;99550.38;5023992;28;20029;-75
2022/09/27 04:09:45;;;;;;;3.85;0.70;;;;;;;10.62;95.39;99544.47;5026303;28;20037;-75
2022/09/27 04:12:11;;;;;;;1.88;0.50;;;;;;;10.71;95.36;99541.97;5025925;28;20055;-75
2022/09/27 04:14:36;;;;;;;3.72;0.80;;;;;;;10.60;95.53;99544.88;5034332;28;20034;-75
2022/09/27 04:17:02;;;;;;;3.08;0.60;;;;;;;10.62;95.69;99539.66;5026904;28;20022;-75
2022/09/27 04:19:27;;;;;;;3.92;1.38;;;;;;;10.64;95.51;99539.25;5023472;28;20045;-75
2022/09/27 04:21:52;;;;;;;3.88;0.60;;;;;;;10.72;95.04;99538.00;5023027;28;20924;-75
2022/09/27 04:24:18;;;;;;;3.70;0.75;;;;;;;10.70;95.62;99538.41;5025915;28;20048;-75
2022/09/27 04:26:43;;;;;;;1.88;0.60;;;;;;;10.69;95.09;99547.19;5027649;28;20029;-75
2022/09/27 04:29:09;;;;;;;3.75;0.70;;;;;;;10.66;95.03;99543.22;5023974;28;20378;-75
2022/09/27 04:31:36;;;;;;;3.10;0.60;;;;;;;10.48;96.83;99536.97;5022503;28;20056;-75
2022/09/27 04:34:04;;;;;;;4.38;0.80;;;;;;;10.62;95.89;99542.44;5021087;28;20044;-76
2022/09/27 04:36:29;;;;;;;4.75;0.65;;;;;;;10.62;95.98;99547.25;5015369;28;20037;-75
2022/09/27 04:38:58;;;;;;;5.00;0.90;;;;;;;10.65;95.01;99547.25;5022500;28;20362;-75
2022/09/27 04:41:24;;;;;;;4.93;0.90;;;;;;;10.63;95.97;99546.84;5019992;28;20044;-75
2022/09/27 04:43:54;;;;;;;3.50;0.82;;;;;;;10.68;95.13;99552.00;5032308;28;20382;-76
2022/09/27 04:46:20;;;;;;;6.13;1.10;;;;;;;10.48;96.65;99542.56;5023385;28;21432;-75
2022/09/27 04:48:46;;;;;;;5.32;0.88;;;;;;;10.44;96.98;99541.81;5020594;28;20428;-75
2022/09/27 04:51:12;;;;;;;1.52;0.70;;;;;;;10.43;96.70;99556.97;5021669;28;20068;-75
2022/09/27 04:53:38;;;;;;;5.20;1.67;;;;;;;10.42;96.89;99553.41;5016526;28;20134;-75
2022/09/27 04:56:05;;;;;;;2.53;0.63;;;;;;;10.28;98.12;99557.03;5015648;28;20037;-75
2022/09/27 04:58:34;;;;;;;5.38;0.93;;;;;;;10.36;96.88;99550.22;5016695;28;20467;-74
2022/09/27 05:01:02;;;;;;;3.13;0.70;;;;;;;10.40;97.09;99558.59;5017120;28;20033;-75
2022/09/27 05:03:28;;;;;;;2.15;0.88;;;;;;;10.50;95.50;99551.34;5016288;28;20068;-75
2022/09/27 05:05:54;;;;;;;3.53;0.57;;;;;;;10.53;94.74;99556.91;5026696;28;20053;-75
2022/09/27 05:08:20;;;;;;;4.45;0.85;;;;;;;10.53;95.14;99551.31;5019383;28;20148;-75
2022/09/27 05:10:46;;;;;;;2.67;0.77;;;;;;;10.51;95.24;99552.94;5022729;28;20060;-75
2022/09/27 05:13:12;;;;;;;2.85;0.60;;;;;;;10.42;94.99;99555.41;5024531;28;20769;-75
2022/09/27 05:15:38;;;;;;;1.58;0.50;;;;;;;10.47;95.08;99557.75;5020046;28;20033;-75
2022/09/27 05:18:04;;;;;;;1.95;0.73;;;;;;;10.46;94.61;99556.19;5022365;28;20034;-75
2022/09/27 05:20:29;;;;;;;2.95;0.77;;;;;;;10.54;93.56;99557.69;5024868;28;20032;-75
2022/09/27 05:22:54;;;;;;;1.30;0.80;;;;;;;10.44;93.20;99559.38;5019407;28;20385;-75
2022/09/27 05:25:20;;;;;;;4.53;1.02;;;;;;;10.44;94.13;99559.38;5018010;28;20033;-75
2022/09/27 05:27:46;;;;;;;1.85;0.77;;;;;;;10.55;94.01;99559.31;5020006;28;20049;-76
2022/09/27 05:30:11;;;;;;;1.50;0.60;;;;;;;10.29;94.82;99563.44;5023601;28;20038;-75
2022/09/27 05:32:42;;;;;;;2.20;0.70;;;;;;;10.37;94.61;99577.00;5014978;28;20564;-76
2022/09/27 05:35:08;;;;;;;4.32;0.98;;;;;;;10.27;94.98;99566.63;5020637;28;20049;-75
2022/09/27 05:37:33;;;;;;;5.07;0.80;;;;;;;10.08;97.34;99575.53;5018182;28;20029;-75
2022/09/27 05:39:58;;;;;;;2.65;0.70;;;;;;;10.29;95.55;99563.44;5020364;28;20449;-75
2022/09/27 05:42:24;;;;;;;3.33;0.70;;;;;;;10.17;95.97;99568.28;5024033;28;20119;-75
2022/09/27 05:44:49;;;;;;;2.10;0.50;;;;;;;10.23;95.68;99554.66;5016643;28;20126;-75
2022/09/27 05:47:15;;;;;;;1.60;0.40;;;;;;;10.33;95.80;99561.41;5019227;28;20055;-75
2022/09/27 05:49:40;;;;;;;6.88;0.88;;;;;;;10.34;95.73;99563.81;5012898;28;20025;-75
2022/09/27 05:52:06;;;;;;;2.70;0.60;;;;;;;10.42;95.08;99563.78;5010494;28;20037;-75
2022/09/27 05:54:31;;;;;;;3.22;0.70;;;;;;;10.48;94.73;99576.16;5016339;28;20033;-75
2022/09/27 05:56:58;;;;;;;1.85;0.50;;;;;;;10.58;93.85;99580.84;5012498;28;20033;-75
2022/09/27 05:59:24;;;;;;;1.63;0.50;;;;;;;10.45;94.73;99576.94;5015266;28;20053;-74
2022/09/27 06:01:50;;;;;;;3.13;0.50;;;;;;;10.51;94.09;99580.91;5013102;28;20045;-75
2022/09/27 06:04:16;;;;;;;2.10;0.80;;;;;;;10.56;94.53;99586.06;5003967;28;20509;-76
2022/09/27 06:06:41;;;;;;;0.45;0.40;;;;;;;10.50;94.93;99584.94;5014207;28;20038;-75
2022/09/27 06:09:10;;;;;;;2.72;0.80;;;;;;;10.52;95.36;99588.09;5010210;28;20029;-75
2022/09/27 06:11:35;;;;;;;1.25;0.60;;;;;;;10.91;95.64;99598.22;5010124;28;20393;-75
2022/09/27 06:14:00;;;;;;;3.35;0.70;;;;;;;10.76;94.51;99587.13;5018787;28;20056;-75
2022/09/27 06:16:25;;;;;;;2.08;0.80;;;;;;;10.40;96.45;99592.16;5019889;28;20037;-75
2022/09/27 06:18:51;;;;;;;5.43;1.00;;;;;;;10.60;95.38;99597.25;5015147;28;20034;-75
2022/09/27 06:21:16;;;;;;;2.08;0.70;;;;;;;10.47;96.39;99594.13;5027806;28;20067;-75
2022/09/27 06:23:41;;;;;;;3.13;0.98;;;;;;;10.30;97.24;99599.41;5027906;28;20440;-76
2022/09/27 06:26:07;;;;;;;2.83;0.65;;;;;;;10.02;98.97;99593.94;5027682;28;20060;-75
2022/09/27 06:28:35;;;;;;;2.80;1.05;;;;;;;10.32;96.76;99596.22;5026621;28;20063;-74
2022/09/27 06:31:01;;;;;;;3.80;0.90;;;;;;;10.22;97.31;99597.81;5022944;28;20068;-73
2022/09/27 06:33:27;;;;;;;1.58;0.82;;;;;;;10.17;96.67;99598.25;5023091;28;20462;-72
2022/09/27 06:35:52;;;;;;;8.02;1.00;;;;;;;10.15;96.32;99597.84;5026812;28;20412;-72
2022/09/27 06:38:20;;;;;;;2.90;0.90;;;;;;;10.09;96.15;99599.47;5023060;28;20029;-72
2022/09/27 06:40:45;;;;;;;2.60;1.15;;;;;;;10.27;96.57;99603.00;5013399;28;20087;-72
2022/09/27 06:43:14;;;;;;;2.05;1.00;;;;;;;10.25;98.30;99605.41;5035409;28;20436;-73
2022/09/27 06:45:41;;;;;;;2.38;0.52;;;;;;;10.29;96.58;99603.41;5021876;28;20024;-73
2022/09/27 06:48:09;;;;;;;2.85;0.88;;;;;;;10.14;95.84;99607.44;5024044;28;20415;-72
2022/09/27 06:50:36;;;;;;;3.72;0.73;;;;;;;10.16;96.08;99607.81;5021253;28;20104;-74
2022/09/27 06:53:02;;;;;;;2.47;1.95;;;;;;;10.05;97.00;99610.66;5023096;28;20495;-73
2022/09/27 06:55:27;;;;;;;2.28;0.88;;;;;;;10.23;96.31;99602.22;5023678;28;21451;-74
2022/09/27 07:00:41;;;;;;;1.92;0.95;;;;;;;10.29;95.19;99620.19;5025169;28;20575;-76
2022/09/27 07:03:08;;;;;;;2.35;0.70;;;;;;;10.09;95.68;99611.44;5023219;28;20478;-73
2022/09/27 07:05:34;;;;;;;7.38;0.95;;;;;;;10.07;96.37;99610.28;5017127;28;20029;-73
2022/09/27 07:07:59;;;;;;;4.63;1.00;;;;;;;10.21;96.19;99617.81;5019772;28;20036;-73
2022/09/27 07:10:31;;;;;;;1.40;0.63;;;;;;;10.06;96.38;99625.47;5021957;28;20025;-73
2022/09/27 07:13:02;;;;;;;4.50;0.68;;;;;;;10.15;97.53;99631.41;5026419;28;20048;-73
2022/09/27 07:15:27;;;;;;;3.80;0.90;;;;;;;10.04;97.62;99627.88;5025479;28;20424;-74
2022/09/27 07:17:57;;;;;;;0.93;0.80;;;;;;;10.02;97.85;99633.84;5027855;28;20116;-73
2022/09/27 07:20:23;;;;;;;3.42;0.90;;;;;;;9.98;98.88;99627.47;5027505;28;20490;-73
2022/09/27 07:22:48;;;;;;;1.58;0.60;;;;;;;10.08;99.32;99631.44;5026690;28;20485;-72
2022/09/27 07:25:14;;;;;;;1.63;1.10;;;;;;;10.30;97.95;99629.38;5024925;28;20109;-72
2022/09/27 07:27:40;;;;;;;1.70;0.85;;;;;;;10.14;98.91;99629.78;5027671;28;20033;-73
2022/09/27 07:30:07;;;;;;;2.45;0.60;;;;;;;10.45;97.75;99628.09;5027833;28;20030;-73
2022/09/27 07:32:34;;;;;;;2.22;0.80;;;;;;;10.47;97.16;99631.28;5022122;28;20032;-74
2022/09/27 07:35:00;;;;;;;3.40;1.40;;;;;;;10.36;98.99;99636.16;5024689;28;20040;-73
2022/09/27 07:37:25;;;;;;;3.75;0.95;;;;;;;10.51;97.78;99643.25;5021857;28;20029;-72
2022/09/27 07:39:51;;;;;;;2.45;1.20;;;;;;;10.45;99.04;99638.50;5021413;28;20158;-73
2022/09/27 07:42:16;;;;;;;4.60;1.10;;;;;;;10.37;100.00;99638.53;5018613;28;20034;-73
2022/09/27 07:44:42;;;;;;;2.92;0.52;;;;;;;10.41;98.68;99644.09;5030099;28;20029;-73
2022/09/27 07:47:08;;;;;;;3.03;0.60;;;;;;;10.60;97.56;99645.59;5025274;28;20030;-73
2022/09/27 07:49:33;;;;;;;2.95;0.70;;;;;;;10.54;97.52;99650.03;5029024;28;20029;-74
2022/09/27 07:51:58;;;;;;;1.48;0.50;;;;;;;10.68;96.86;99651.97;5016973;28;20471;-75
2022/09/27 07:54:24;;;;;;;2.83;0.77;;;;;;;10.54;98.60;99653.66;5017381;28;20053;-74
2022/09/27 07:56:49;;;;;;;0.98;0.65;;;;;;;10.61;97.23;99658.41;5014913;28;20041;-74
2022/09/27 07:59:14;;;;;;;3.22;0.70;;;;;;;10.69;96.88;99659.97;5026434;28;20048;-74
2022/09/27 08:01:40;;;;;;;5.15;1.05;;;;;;;10.69;96.18;99671.16;5015684;28;20022;-74
2022/09/27 08:04:05;;;;;;;5.15;1.63;;;;;;;10.68;97.99;99663.94;5016897;28;20116;-74
2022/09/27 08:06:30;;;;;;;3.28;0.50;;;;;;;10.68;96.98;99663.94;5019956;28;20204;-74
2022/09/27 08:08:58;;;;;;;1.27;0.52;;;;;;;10.73;95.84;99666.34;5019771;28;20116;-74
2022/09/27 08:11:24;;;;;;;1.98;0.50;;;;;;;10.77;95.04;99669.09;5019122;28;20036;-73
2022/09/27 08:13:51;;;;;;;2.45;0.52;;;;;;;10.74;95.51;99675.53;5018797;28;20481;-74
2022/09/27 08:16:17;;;;;;;3.78;0.57;;;;;;;10.75;95.31;99682.69;5018121;28;20550;-74
2022/09/27 08:18:42;;;;;;;1.98;0.40;;;;;;;10.95;94.13;99688.59;5023997;28;20029;-74
2022/09/27 08:21:07;;;;;;;2.85;0.30;;;;;;;10.93;96.98;99680.59;5019831;28;20033;-74
2022/09/27 08:23:33;;;;;;;1.17;0.55;;;;;;;10.87;94.48;99687.03;5016028;28;20083;-74
2022/09/27 08:25:58;;;;;;;2.75;0.65;;;;;;;10.97;94.52;99680.59;5018757;28;20052;-73
2022/09/27 08:28:27;;;;;;;0.75;0.30;;;;;;;10.91;96.43;99687.81;5020394;28;20119;-73
2022/09/27 08:30:56;;;;;;;0.40;0.40;;;;;;;10.80;96.10;99685.09;5018330;28;20040;-74
2022/09/27 08:33:21;;;;;;;1.80;0.45;;;;;;;10.98;95.45;99698.97;5019819;28;20480;-74
2022/09/27 08:35:46;;;;;;;1.30;0.40;;;;;;;10.88;97.22;99692.25;5022534;28;20038;-74
2022/09/27 08:38:12;;;;;;;0.70;0.40;;;;;;;10.89;96.35;99696.63;5021039;28;20113;-73
2022/09/27 08:40:54;;;;;;;1.92;0.40;;;;;;;10.80;94.41;99692.69;5019678;28;20029;-74
2022/09/27 08:43:38;;;;;;;3.55;0.50;;;;;;;10.76;95.16;99699.09;5038232;28;20052;-73
2022/09/27 08:46:34;;;;;;;0.40;0.38;;;;;;;10.70;95.41;99706.31;5023963;28;20037;-74
2022/09/27 08:49:32;;;;;;;0.45;0.43;;;;;;;10.75;95.74;99717.09;5024006;28;20032;-73
2022/09/27 08:51:59;;;;;;;0.93;0.38;;;;;;;10.82;94.55;99710.66;5017253;28;20112;-73
2022/09/27 08:54:29;;;;;;;0.50;0.20;;;;;;;10.69;96.04;99698.31;5022826;28;20532;-74
2022/09/27 08:57:02;;;;;;;1.48;0.52;;;;;;;10.57;95.82;99703.19;5025467;28;20201;-74
2022/09/27 08:59:34;;;;;;;1.08;0.43;;;;;;;10.53;95.62;99702.41;5026615;28;20087;-74
2022/09/27 09:02:01;;;;;;;1.58;0.50;;;;;;;10.50;97.11;99708.03;5026134;28;20434;-74
2022/09/27 09:04:38;;;;;;;2.92;0.70;;;;;;;10.66;96.53;99693.56;5028194;28;20083;-74
2022/09/27 09:07:13;;;;;;;2.35;0.68;;;;;;;10.67;95.98;99697.97;5019421;28;20107;-74
2022/09/27 09:09:47;;;;;;;2.80;0.40;;;;;;;10.88;94.85;99700.63;5023575;28;20026;-73
2022/09/27 09:12:48;;;;;;;2.08;0.68;;;;;;;10.82;95.35;99704.28;5024690;28;20033;-73
2022/09/27 09:15:19;;;;;;;1.42;0.25;;;;;;;10.89;95.57;99702.22;5025596;28;20075;-72
2022/09/27 09:17:59;;;;;;;1.55;0.45;;;;;;;10.88;95.25;99699.81;5022669;28;20048;-74
2022/09/27 09:20:53;;;;;;;1.52;0.63;;;;;;;10.91;94.97;99699.00;5024730;28;20040;-74
2022/09/27 09:23:40;;;;;;;1.92;0.60;;;;;;;10.78;95.24;99693.88;5022761;28;20091;-74
2022/09/27 09:26:20;;;;;;;5.68;0.95;;;;;;;10.90;95.66;99700.19;5021244;28;20026;-74
2022/09/27 09:29:19;;;;;;;0.50;0.47;;;;;;;10.71;97.71;99695.91;5020944;28;20469;-74
2022/09/27 09:31:57;;;;;;;5.15;0.80;;;;;;;10.80;98.46;99699.06;5018941;28;20132;-74
2022/09/27 09:34:36;;;;;;;1.05;0.40;;;;;;;10.80;99.06;99699.06;5025259;28;20075;-73
2022/09/27 09:37:23;;;;;;;2.25;0.60;;;;;;;10.83;99.50;99708.66;5022649;28;20045;-73
2022/09/27 09:40:01;;;;;;;2.70;0.82;;;;;;;10.82;98.68;99709.88;5034282;28;20057;-74
2022/09/27 09:42:56;;;;;;;3.22;0.65;;;;;;;10.76;99.29;99710.28;5021696;28;20488;-74
2022/09/27 09:45:27;;;;;;;1.63;0.90;;;;;;;10.86;98.30;99708.66;5021098;28;20058;-74
2022/09/27 09:48:04;;;;;;;5.00;0.70;;;;;;;11.07;97.32;99706.91;5020764;28;20025;-74
2022/09/27 09:50:41;;;;;;;2.33;0.60;;;;;;;11.14;96.94;99701.28;5022287;28;20037;-74
2022/09/27 09:53:22;;;;;;;1.73;0.95;;;;;;;10.98;97.30;99693.34;5018145;28;20033;-74
2022/09/27 09:55:56;;;;;;;1.75;0.65;;;;;;;11.26;96.59;99702.78;5017314;28;20123;-74
2022/09/27 09:58:40;;;;;;;4.07;0.85;;;;;;;11.14;97.08;99704.06;5020833;28;20127;-74
2022/09/27 10:01:35;;;;;;;8.35;1.85;;;;;;;11.11;97.98;99707.69;5018500;28;20857;-74
2022/09/27 10:04:01;;;;;;;2.45;0.82;;;;;;;11.07;98.02;99704.91;5025404;28;20493;-73
2022/09/27 10:06:27;;;;;;;1.40;0.93;;;;;;;10.90;100.00;99712.22;5023427;28;20025;-73
2022/09/27 10:08:54;;;;;;;6.45;1.17;;;;;;;11.00;99.69;99713.34;5022877;28;20038;-75
2022/09/27 10:11:34;;;;;;;2.92;0.82;;;;;;;11.15;97.74;99703.66;5020762;28;20115;-75
2022/09/27 10:14:00;;;;;;;4.60;0.90;;;;;;;11.12;98.81;99707.28;5018482;28;20060;-75
2022/09/27 10:16:27;;;;;;;4.05;0.85;;;;;;;11.22;99.41;99704.81;5020415;28;20027;-74
2022/09/27 10:18:59;;;;;;;3.30;0.75;;;;;;;11.23;99.50;99714.81;5022962;28;20330;-74
2022/09/27 10:21:28;;;;;;;5.15;1.00;;;;;;;11.01;99.86;99723.34;5018148;28;20111;-75
2022/09/27 10:24:10;;;;;;;4.10;0.90;;;;;;;10.98;100.00;99724.97;5011484;28;20556;-75
2022/09/27 10:26:38;;;;;;;2.70;0.68;;;;;;;10.69;97.78;99732.72;5022086;28;20579;-74
2022/09/27 10:29:23;;;;;;;1.10;0.50;;;;;;;10.46;98.46;99746.41;5014688;28;20052;-75
2022/09/27 10:31:50;;;;;;;2.70;0.60;;;;;;;10.58;97.47;99743.16;5021809;28;20420;-75
2022/09/27 10:34:17;;;;;;;1.67;0.70;;;;;;;10.75;96.94;99745.09;5021468;28;20030;-74
2022/09/27 10:36:42;;;;;;;1.73;0.52;;;;;;;10.68;97.14;99736.72;5018664;28;20029;-75
2022/09/27 10:39:21;;;;;;;0.32;0.30;;;;;;;10.71;97.31;99735.09;5018723;28;20044;-74
2022/09/27 10:41:46;;;;;;;3.35;0.55;;;;;;;10.70;97.28;99744.72;5018194;28;20131;-74
2022/09/27 10:44:15;;;;;;;0.93;0.47;;;;;;;10.57;97.16;99741.56;5009807;28;20109;-74
2022/09/27 10:46:42;;;;;;;0.88;0.40;;;;;;;10.80;96.94;99731.88;5036453;28;20049;-74
2022/09/27 10:49:18;;;;;;;4.60;1.77;;;;;;;10.75;97.23;99731.09;5015984;28;20034;-74
2022/09/27 10:51:48;;;;;;;0.68;0.50;;;;;;;10.80;97.60;99724.28;5013613;28;20041;-75
2022/09/27 10:54:23;;;;;;;2.47;1.30;;;;;;;10.73;97.71;99727.09;5018188;28;20040;-74
2022/09/27 10:57:13;;;;;;;4.00;0.50;;;;;;;10.69;97.62;99729.09;5016092;28;20056;-74
2022/09/27 10:59:41;;;;;;;3.65;0.60;;;;;;;10.93;96.74;99724.59;5022809;28;20183;-73
2022/09/27 11:02:25;;;;;;;1.55;0.55;;;;;;;10.86;97.97;99716.25;5017920;28;20040;-75
2022/09/27 11:05:13;;;;;;;5.07;0.60;;;;;;;11.12;96.87;99714.88;5019130;28;20041;-75
2022/09/27 11:07:53;;;;;;;1.77;0.60;;;;;;;11.18;95.52;99711.22;5013162;28;20099;-74
2022/09/27 11:10:39;;;;;;;2.95;0.73;;;;;;;11.11;96.64;99719.69;5021896;28;20025;-75
2022/09/27 11:13:31;;;;;;;2.53;0.68;;;;;;;11.23;96.66;99710.00;5018194;28;20039;-74
2022/09/27 11:16:28;;;;;;;6.03;0.50;;;;;;;11.19;97.03;99707.25;5013731;28;20052;-75
2022/09/27 11:19:34;;;;;;;1.45;0.60;;;;;;;11.05;98.56;99715.72;5034773;28;20528;-75
2022/09/27 11:22:32;;;;;;;1.55;0.60;;;;;;;10.99;99.71;99706.16;5015745;28;20461;-75
2022/09/27 11:25:29;;;;;;;2.25;0.70;;;;;;;10.96;100.00;99706.97;5013508;28;20041;-76
2022/09/27 11:28:07;;;;;;;1.90;0.73;;;;;;;11.02;99.96;99701.75;5017398;28;20570;-75
2022/09/27 11:30:57;;;;;;;5.03;1.00;;;;;;;11.04;99.71;99700.13;5018244;28;20037;-75
2022/09/27 11:33:47;;;;;;;2.88;1.05;;;;;;;11.22;100.00;99704.81;5019697;28;20112;-75
2022/09/27 11:36:22;;;;;;;3.33;0.60;;;;;;;11.14;99.85;99702.06;5016254;28;20033;-75
2022/09/27 11:38:48;;;;;;;5.35;0.90;;;;;;;11.18;99.53;99697.22;5012640;28;20065;-75
2022/09/27 11:41:50;;;;;;;5.78;0.98;;;;;;;11.04;100.00;99697.31;5017829;28;20246;-75
2022/09/27 11:44:33;;;;;;;1.65;0.60;;;;;;;11.24;99.81;99700.41;5017608;28;20037;-75
2022/09/27 11:47:08;;;;;;;2.72;0.80;;;;;;;11.11;99.34;99700.09;5015289;28;20520;-74
2022/09/27 11:49:48;;;;;;;3.55;1.55;;;;;;;11.24;98.47;99699.63;5016966;28;20037;-75
2022/09/27 11:52:41;;;;;;;2.13;1.02;;;;;;;11.20;97.10;99702.44;5022511;28;20026;-75
2022/09/27 11:55:24;;;;;;;1.75;0.50;;;;;;;11.29;97.66;99701.97;5016479;28;20385;-75
2022/09/27 11:58:24;;;;;;;1.83;0.63;;;;;;;11.21;97.75;99700.41;5014996;28;20045;-75